Time;durP1;ratioP1;P1;durP2;ratioP2;P2;SDS_P1;SDS_P2;PMS_P1;PMS_P2;Temp;Humidity;BMP_temperature;BMP_pressure;BME280_temperature;BME280_humidity;BME280_pressure;Samples;Min_cycle;Max_cycle;Signal;HPM_P1;HPM_P2
2023/09/09 00:01:32;;;;;;;11.82;9.45;;;19.90;76.80;;;;;;5031637;28;20017;-77
2023/09/09 00:03:59;;;;;;;11.10;9.65;;;19.80;76.90;;;;;;5031711;28;20030;-77
2023/09/09 00:06:25;;;;;;;10.23;9.23;;;19.80;77.40;;;;;;5031631;28;20038;-76
2023/09/09 00:08:50;;;;;;;9.43;8.63;;;19.80;77.50;;;;;;5031797;28;20038;-79
2023/09/09 00:11:16;;;;;;;12.88;9.75;;;19.80;78.20;;;;;;5015155;28;20125;-77
2023/09/09 00:13:42;;;;;;;12.48;9.88;;;19.80;77.30;;;;;;5030939;28;20032;-78
2023/09/09 00:16:09;;;;;;;11.68;9.50;;;19.80;77.40;;;;;;5031750;28;20025;-78
2023/09/09 00:18:36;;;;;;;16.05;9.77;;;19.80;77.50;;;;;;5031719;28;20036;-78
2023/09/09 00:21:01;;;;;;;10.38;9.27;;;19.70;77.50;;;;;;5031530;28;20022;-77
2023/09/09 00:23:27;;;;;;;18.60;9.65;;;19.80;77.40;;;;;;5031116;28;20025;-74
2023/09/09 00:25:52;;;;;;;12.68;9.45;;;19.70;77.50;;;;;;5032139;28;20022;-75
2023/09/09 00:28:18;;;;;;;13.27;9.77;;;19.80;77.40;;;;;;5050175;28;20059;-75
2023/09/09 00:30:43;;;;;;;9.57;8.38;;;19.70;77.50;;;;;;5052314;28;20364;-75
2023/09/09 00:33:09;;;;;;;12.90;9.90;;;19.60;77.60;;;;;;5034731;28;20028;-77
2023/09/09 00:35:38;;;;;;;10.60;9.45;;;19.60;77.70;;;;;;5034608;28;20025;-79
2023/09/09 00:38:05;;;;;;;14.25;9.57;;;19.70;78.40;;;;;;5034421;28;20033;-78
2023/09/09 00:40:31;;;;;;;13.50;9.73;;;19.60;78.00;;;;;;5034769;28;20047;-76
2023/09/09 00:42:56;;;;;;;10.23;9.18;;;19.50;78.00;;;;;;5034400;28;20021;-79
2023/09/09 00:45:23;;;;;;;11.57;9.63;;;19.60;77.80;;;;;;5034053;28;20535;-78
2023/09/09 00:47:49;;;;;;;12.32;9.02;;;19.60;78.00;;;;;;5034589;28;20045;-76
2023/09/09 00:50:15;;;;;;;17.02;10.13;;;19.40;78.00;;;;;;5034058;28;20017;-80
2023/09/09 00:52:41;;;;;;;10.88;9.38;;;19.40;78.30;;;;;;5034394;28;20044;-78
2023/09/09 00:55:09;;;;;;;11.13;9.52;;;19.40;78.80;;;;;;5034446;28;20032;-76
2023/09/09 00:57:35;;;;;;;10.85;9.77;;;19.30;79.10;;;;;;5034310;28;20442;-76
2023/09/09 01:00:05;;;;;;;13.68;8.93;;;19.30;79.40;;;;;;5034499;28;20025;-76
2023/09/09 01:02:31;;;;;;;11.23;9.50;;;19.20;79.30;;;;;;5034430;28;20033;-76
2023/09/09 01:04:59;;;;;;;10.10;9.20;;;19.30;79.30;;;;;;5034310;28;20024;-75
2023/09/09 01:07:27;;;;;;;10.63;9.25;;;19.30;79.40;;;;;;5034337;28;20069;-76
2023/09/09 01:09:53;;;;;;;12.45;9.75;;;19.30;79.40;;;;;;5034358;28;20031;-76
2023/09/09 01:12:21;;;;;;;11.15;10.05;;;19.20;79.50;;;;;;5033712;28;20116;-76
2023/09/09 01:14:47;;;;;;;12.00;9.40;;;19.20;79.80;;;;;;5033822;28;20039;-76
2023/09/09 01:17:13;;;;;;;10.82;9.30;;;19.20;80.00;;;;;;5034314;28;20025;-75
2023/09/09 01:19:38;;;;;;;13.70;10.10;;;19.20;79.80;;;;;;5034318;28;20052;-76
2023/09/09 01:22:11;;;;;;;14.57;10.02;;;19.30;79.90;;;;;;5034353;28;20063;-75
2023/09/09 01:24:38;;;;;;;10.45;8.98;;;19.30;79.80;;;;;;5034492;28;20031;-75
2023/09/09 01:27:04;;;;;;;13.65;10.05;;;19.30;79.70;;;;;;5037421;28;20071;-76
2023/09/09 01:29:30;;;;;;;11.00;9.95;;;19.30;79.80;;;;;;5037848;28;20490;-76
2023/09/09 01:31:55;;;;;;;10.68;8.63;;;19.30;79.50;;;;;;5037954;28;20040;-77
2023/09/09 01:34:21;;;;;;;9.77;8.68;;;19.40;79.40;;;;;;5037899;28;20095;-78
2023/09/09 01:36:47;;;;;;;10.98;9.88;;;19.30;79.30;;;;;;5037669;28;20024;-77
2023/09/09 01:39:13;;;;;;;11.82;9.50;;;19.30;79.20;;;;;;5037581;28;20021;-76
2023/09/09 01:41:38;;;;;;;10.85;9.75;;;19.40;79.40;;;;;;5037507;28;20048;-77
2023/09/09 01:44:04;;;;;;;12.90;9.25;;;19.40;79.50;;;;;;5055602;28;20036;-77
2023/09/09 01:46:30;;;;;;;9.63;8.70;;;19.40;79.60;;;;;;5037411;28;20036;-76
2023/09/09 01:48:57;;;;;;;10.63;9.52;;;19.40;79.50;;;;;;5037642;28;20033;-77
2023/09/09 01:51:23;;;;;;;9.95;8.95;;;19.40;79.60;;;;;;5037535;28;20029;-76
2023/09/09 01:53:48;;;;;;;10.82;9.73;;;19.40;79.60;;;;;;5037533;28;20082;-76
2023/09/09 01:56:14;;;;;;;13.00;9.00;;;19.30;79.70;;;;;;5037124;28;20025;-76
2023/09/09 01:58:39;;;;;;;10.77;9.60;;;19.30;79.50;;;;;;5037420;28;20025;-76
2023/09/09 02:01:05;;;;;;;10.88;9.52;;;19.30;79.10;;;;;;5037142;28;20439;-76
2023/09/09 02:03:31;;;;;;;10.82;9.73;;;19.20;79.30;;;;;;5037031;28;20425;-76
2023/09/09 02:05:56;;;;;;;13.73;10.00;;;19.10;79.80;;;;;;5036981;28;20025;-74
2023/09/09 02:08:22;;;;;;;10.00;8.98;;;19.00;80.00;;;;;;5037246;28;20028;-76
2023/09/09 02:10:50;;;;;;;9.63;8.73;;;19.00;80.40;;;;;;5037169;28;20025;-77
2023/09/09 02:13:15;;;;;;;11.15;9.55;;;19.00;80.50;;;;;;5037125;28;20025;-78
2023/09/09 02:15:41;;;;;;;10.77;9.43;;;19.00;80.40;;;;;;5037167;28;20021;-76
2023/09/09 02:18:07;;;;;;;10.63;9.57;;;19.10;80.50;;;;;;5037091;28;20021;-75
2023/09/09 02:20:33;;;;;;;10.55;9.45;;;19.10;80.40;;;;;;5036990;28;20025;-76
2023/09/09 02:23:00;;;;;;;12.48;9.85;;;19.20;80.10;;;;;;5036720;28;20028;-75
2023/09/09 02:25:25;;;;;;;13.38;8.38;;;19.20;80.10;;;;;;5037005;28;20444;-77
2023/09/09 02:27:51;;;;;;;11.20;9.30;;;19.30;80.20;;;;;;5036558;28;20049;-76
2023/09/09 02:30:16;;;;;;;10.35;9.25;;;19.30;80.00;;;;;;5036797;28;20021;-75
2023/09/09 02:32:44;;;;;;;12.43;9.63;;;19.30;79.70;;;;;;5036766;28;20424;-76
2023/09/09 02:35:09;;;;;;;11.93;9.45;;;19.30;79.30;;;;;;5036660;28;20116;-77
2023/09/09 02:37:35;;;;;;;11.32;9.30;;;19.20;80.00;;;;;;5036271;28;20049;-77
2023/09/09 02:40:01;;;;;;;9.98;8.95;;;19.20;79.60;;;;;;5036675;28;20055;-77
2023/09/09 02:42:26;;;;;;;10.93;9.35;;;19.20;79.70;;;;;;5044465;28;20117;-77
2023/09/09 02:44:52;;;;;;;11.05;9.45;;;19.10;80.10;;;;;;5036785;28;20416;-77
2023/09/09 02:47:18;;;;;;;10.70;9.30;;;19.00;80.20;;;;;;5036401;28;20033;-78
2023/09/09 02:49:44;;;;;;;9.52;8.55;;;19.00;80.50;;;;;;5036484;28;20175;-77
2023/09/09 02:52:11;;;;;;;10.93;9.75;;;19.00;80.70;;;;;;5035725;28;20531;-78
2023/09/09 02:54:37;;;;;;;10.50;9.50;;;19.00;80.90;;;;;;5036304;28;20166;-79
2023/09/09 02:57:03;;;;;;;11.48;10.25;;;18.90;81.10;;;;;;5036309;28;20028;-79
2023/09/09 02:59:30;;;;;;;12.52;10.02;;;18.90;81.30;;;;;;5036363;28;20021;-77
2023/09/09 03:01:56;;;;;;;11.38;10.27;;;18.80;81.70;;;;;;5028228;28;20187;-77
2023/09/09 03:04:21;;;;;;;11.73;10.07;;;18.80;81.90;;;;;;5036182;28;20091;-77
2023/09/09 03:06:47;;;;;;;11.45;10.07;;;18.70;82.30;;;;;;5036038;28;20079;-76
2023/09/09 03:09:16;;;;;;;12.75;10.20;;;18.80;82.40;;;;;;5036107;28;20028;-77
2023/09/09 03:11:42;;;;;;;14.15;10.88;;;18.80;82.40;;;;;;5036135;28;20033;-75
2023/09/09 03:14:08;;;;;;;12.45;10.50;;;18.70;82.60;;;;;;5035794;28;20029;-76
2023/09/09 03:16:34;;;;;;;11.70;10.32;;;18.60;82.90;;;;;;5035856;28;20029;-76
2023/09/09 03:19:00;;;;;;;12.07;10.93;;;18.70;83.40;;;;;;5035916;28;20270;-75
2023/09/09 03:21:26;;;;;;;10.65;9.70;;;18.70;83.30;;;;;;5035977;28;20021;-75
2023/09/09 03:23:51;;;;;;;10.60;9.50;;;18.80;82.90;;;;;;5035857;28;20025;-77
2023/09/09 03:26:18;;;;;;;11.95;9.35;;;18.90;82.60;;;;;;5035510;28;20352;-76
2023/09/09 03:28:51;;;;;;;10.40;9.43;;;19.00;81.90;;;;;;5035255;28;20029;-76
2023/09/09 03:31:16;;;;;;;10.98;9.88;;;19.20;81.30;;;;;;5035484;28;20028;-77
2023/09/09 03:33:42;;;;;;;10.13;9.15;;;19.20;80.80;;;;;;5035465;28;20028;-76
2023/09/09 03:36:08;;;;;;;10.73;9.50;;;19.30;80.40;;;;;;5035723;28;20053;-77
2023/09/09 03:38:35;;;;;;;9.93;9.13;;;19.30;79.70;;;;;;5035445;28;20031;-77
2023/09/09 03:41:03;;;;;;;11.85;10.60;;;19.40;79.20;;;;;;5035400;28;20027;-76
2023/09/09 03:43:29;;;;;;;9.80;8.90;;;19.40;79.50;;;;;;5034557;28;20025;-76
2023/09/09 03:45:55;;;;;;;12.65;9.77;;;19.30;79.40;;;;;;5034665;28;20016;-76
2023/09/09 03:48:21;;;;;;;10.77;9.77;;;19.30;78.80;;;;;;5035140;28;20060;-76
2023/09/09 03:50:48;;;;;;;11.18;10.15;;;19.20;79.10;;;;;;5035232;28;20045;-77
2023/09/09 03:53:14;;;;;;;10.63;9.55;;;19.00;79.70;;;;;;5034980;28;20028;-76
2023/09/09 03:55:39;;;;;;;10.85;9.80;;;19.00;80.40;;;;;;5035045;28;20021;-76
2023/09/09 03:58:05;;;;;;;11.52;10.32;;;19.00;80.70;;;;;;5034931;28;20060;-76
2023/09/09 04:00:30;;;;;;;13.15;10.80;;;18.90;81.80;;;;;;5034977;28;20418;-76
2023/09/09 04:02:56;;;;;;;10.32;9.32;;;18.90;81.90;;;;;;5035104;28;20047;-77
2023/09/09 04:05:22;;;;;;;10.65;9.63;;;18.90;82.10;;;;;;5034989;28;20509;-76
2023/09/09 04:07:48;;;;;;;10.85;9.80;;;19.00;81.90;;;;;;5035074;28;20040;-75
2023/09/09 04:10:14;;;;;;;14.55;13.05;;;19.00;81.60;;;;;;5034841;28;20021;-75
2023/09/09 04:12:39;;;;;;;19.52;17.52;;;19.00;81.40;;;;;;5034989;28;20033;-76
2023/09/09 04:15:06;;;;;;;18.75;16.95;;;19.00;81.40;;;;;;5034971;28;20368;-75
2023/09/09 04:17:32;;;;;;;19.15;14.27;;;19.00;81.50;;;;;;5034799;28;20036;-76
2023/09/09 04:19:57;;;;;;;12.00;10.80;;;19.00;81.20;;;;;;5034798;28;20413;-75
2023/09/09 04:22:23;;;;;;;11.65;10.52;;;18.90;80.60;;;;;;5034858;28;20040;-76
2023/09/09 04:24:48;;;;;;;10.55;9.55;;;18.80;80.50;;;;;;5034944;28;20017;-75
2023/09/09 04:27:14;;;;;;;14.23;10.60;;;18.80;81.70;;;;;;5034004;28;20049;-76
2023/09/09 04:29:39;;;;;;;12.82;11.70;;;18.80;81.80;;;;;;5034920;28;20029;-74
2023/09/09 04:32:05;;;;;;;14.10;12.70;;;18.70;82.20;;;;;;5034923;28;20049;-74
2023/09/09 04:34:31;;;;;;;13.52;12.20;;;18.70;82.80;;;;;;5034471;28;20070;-75
2023/09/09 04:36:57;;;;;;;13.10;10.90;;;18.70;82.90;;;;;;5034715;28;20132;-74
2023/09/09 04:39:22;;;;;;;12.85;11.32;;;18.70;82.90;;;;;;5034827;28;20447;-75
2023/09/09 04:41:48;;;;;;;11.70;10.50;;;18.80;82.70;;;;;;5034898;28;20091;-75
2023/09/09 04:44:14;;;;;;;11.85;10.23;;;18.90;82.30;;;;;;5034740;28;20017;-75
2023/09/09 04:46:39;;;;;;;13.45;11.18;;;18.90;82.00;;;;;;5034533;28;20033;-76
2023/09/09 04:49:05;;;;;;;13.27;11.23;;;19.00;81.80;;;;;;5034734;28;20484;-76
2023/09/09 04:51:31;;;;;;;11.48;10.30;;;18.90;81.90;;;;;;5034787;28;20033;-76
2023/09/09 04:53:57;;;;;;;11.88;10.77;;;18.90;82.10;;;;;;5034662;28;20075;-76
2023/09/09 04:56:22;;;;;;;12.30;10.30;;;18.90;81.70;;;;;;5034497;28;20320;-76
2023/09/09 04:58:49;;;;;;;11.30;10.20;;;18.90;81.70;;;;;;5034406;28;20029;-76
2023/09/09 05:01:14;;;;;;;11.65;10.55;;;18.80;82.00;;;;;;5037516;28;20021;-76
2023/09/09 05:03:40;;;;;;;11.75;10.65;;;18.90;82.30;;;;;;5038458;28;20062;-76
2023/09/09 05:06:05;;;;;;;12.27;11.07;;;18.80;82.10;;;;;;5038017;28;20100;-77
2023/09/09 05:08:31;;;;;;;10.82;9.73;;;18.80;81.80;;;;;;5038382;28;20061;-76
2023/09/09 05:10:57;;;;;;;11.25;10.15;;;18.90;81.60;;;;;;5038375;28;20021;-76
2023/09/09 05:13:22;;;;;;;11.10;10.07;;;18.70;80.10;;;;;;5042853;28;20025;-76
2023/09/09 05:15:48;;;;;;;10.85;9.85;;;18.70;79.90;;;;;;5039241;28;20021;-76
2023/09/09 05:18:13;;;;;;;10.73;9.70;;;18.80;79.70;;;;;;5038172;28;20053;-75
2023/09/09 05:20:39;;;;;;;12.23;9.55;;;18.80;79.40;;;;;;5038356;28;20475;-75
2023/09/09 05:23:04;;;;;;;14.90;10.60;;;18.80;79.20;;;;;;5038319;28;20029;-76
2023/09/09 05:25:30;;;;;;;14.25;11.23;;;18.80;78.80;;;;;;5055750;28;20593;-75
2023/09/09 05:27:56;;;;;;;10.95;9.85;;;18.80;78.50;;;;;;5037781;28;20514;-75
2023/09/09 05:30:21;;;;;;;11.52;10.32;;;18.70;78.60;;;;;;5037815;28;20514;-76
2023/09/09 05:32:47;;;;;;;10.90;9.90;;;18.80;78.50;;;;;;5037532;28;20059;-75
2023/09/09 05:35:13;;;;;;;10.45;9.45;;;18.80;78.40;;;;;;5055779;28;20025;-79
2023/09/09 05:37:42;;;;;;;11.25;10.15;;;18.90;78.20;;;;;;5037740;28;20021;-76
2023/09/09 05:40:09;;;;;;;11.93;10.75;;;18.90;78.20;;;;;;5037746;28;20036;-76
2023/09/09 05:42:34;;;;;;;10.82;9.82;;;18.90;78.00;;;;;;5055379;28;20033;-77
2023/09/09 05:45:01;;;;;;;10.43;9.40;;;19.00;78.00;;;;;;5037643;28;20383;-76
2023/09/09 05:47:27;;;;;;;11.50;10.30;;;19.10;78.00;;;;;;5037537;28;20036;-77
2023/09/09 05:49:52;;;;;;;9.90;8.90;;;19.10;77.90;;;;;;5037674;28;20021;-76
2023/09/09 05:52:18;;;;;;;12.05;10.02;;;19.10;77.90;;;;;;5038430;28;20025;-76
2023/09/09 05:54:43;;;;;;;11.55;10.35;;;19.10;77.80;;;;;;5037401;28;20021;-75
2023/09/09 05:57:09;;;;;;;10.77;9.70;;;19.20;77.70;;;;;;5037311;28;20033;-77
2023/09/09 05:59:35;;;;;;;11.93;9.88;;;19.30;77.50;;;;;;5037189;28;20075;-77
2023/09/09 06:02:00;;;;;;;10.82;9.77;;;19.40;77.20;;;;;;5054781;28;20502;-77
2023/09/09 06:04:27;;;;;;;11.23;10.13;;;19.50;77.00;;;;;;5037077;28;20057;-77
2023/09/09 06:06:53;;;;;;;10.40;9.30;;;19.50;76.70;;;;;;5037143;28;20036;-76
2023/09/09 06:09:19;;;;;;;12.25;9.93;;;19.60;76.50;;;;;;5055109;28;20080;-75
2023/09/09 06:11:44;;;;;;;16.17;10.75;;;19.70;76.50;;;;;;5035315;28;20032;-76
2023/09/09 06:14:10;;;;;;;12.13;10.98;;;19.80;76.60;;;;;;5054830;28;20029;-75
2023/09/09 06:16:36;;;;;;;13.05;11.70;;;19.80;76.70;;;;;;5036883;28;20360;-75
2023/09/09 06:19:02;;;;;;;14.60;10.75;;;19.80;77.00;;;;;;5036976;28;20029;-75
2023/09/09 06:21:27;;;;;;;11.93;10.30;;;19.90;77.40;;;;;;5054792;28;20028;-75
2023/09/09 06:23:54;;;;;;;11.93;10.82;;;19.90;77.30;;;;;;5036529;28;20391;-76
2023/09/09 06:26:20;;;;;;;11.90;10.70;;;20.00;77.40;;;;;;5036525;28;20383;-77
2023/09/09 06:28:46;;;;;;;10.52;9.55;;;20.00;77.40;;;;;;5042620;28;20025;-75
2023/09/09 06:31:11;;;;;;;10.25;9.25;;;20.10;77.40;;;;;;5037019;28;20475;-75
2023/09/09 06:33:37;;;;;;;11.73;10.63;;;20.20;77.20;;;;;;5040814;28;20052;-76
2023/09/09 06:36:03;;;;;;;11.25;10.02;;;20.30;77.10;;;;;;5036822;28;20467;-76
2023/09/09 06:38:28;;;;;;;11.07;9.73;;;20.40;77.40;;;;;;5036755;28;20055;-77
2023/09/09 06:40:54;;;;;;;12.70;11.18;;;20.40;77.70;;;;;;5036332;28;20105;-75
2023/09/09 06:43:20;;;;;;;11.20;9.80;;;20.50;77.70;;;;;;5036254;28;20025;-75
2023/09/09 06:45:47;;;;;;;11.27;9.68;;;20.60;77.20;;;;;;5036350;28;20029;-75
2023/09/09 06:48:17;;;;;;;12.20;10.93;;;20.70;76.90;;;;;;5036176;28;20036;-77
2023/09/09 06:50:48;;;;;;;10.85;9.77;;;20.80;76.20;;;;;;5036088;28;20021;-76
2023/09/09 06:53:14;;;;;;;14.10;12.68;;;20.90;76.10;;;;;;5036188;28;20025;-76
2023/09/09 06:55:43;;;;;;;11.80;10.05;;;21.00;75.70;;;;;;5019707;28;20540;-76
2023/09/09 06:58:09;;;;;;;14.77;11.25;;;21.10;75.80;;;;;;5052449;28;20452;-78
2023/09/09 07:00:36;;;;;;;10.40;9.30;;;21.20;75.70;;;;;;5018707;28;20024;-77
2023/09/09 07:03:02;;;;;;;9.65;8.75;;;21.30;75.60;;;;;;5035311;28;20387;-77
2023/09/09 07:05:27;;;;;;;9.80;8.80;;;21.40;75.20;;;;;;5035251;28;20031;-76
2023/09/09 07:07:53;;;;;;;12.93;9.30;;;21.50;74.90;;;;;;5019317;28;20044;-75
2023/09/09 07:10:18;;;;;;;11.73;9.93;;;21.70;74.40;;;;;;5035763;28;20529;-73
2023/09/09 07:12:44;;;;;;;10.55;9.40;;;21.90;74.00;;;;;;5035736;28;20024;-74
2023/09/09 07:15:10;;;;;;;12.20;10.23;;;22.00;73.40;;;;;;5035654;28;20045;-79
2023/09/09 07:17:35;;;;;;;11.32;10.23;;;22.20;72.90;;;;;;5035111;28;20060;-75
2023/09/09 07:20:01;;;;;;;10.45;9.32;;;22.30;72.80;;;;;;5035672;28;20534;-75
2023/09/09 07:22:27;;;;;;;11.68;10.57;;;22.30;72.50;;;;;;5035005;28;20025;-77
2023/09/09 07:24:52;;;;;;;10.98;9.63;;;22.40;72.00;;;;;;5035116;28;20033;-76
2023/09/09 07:27:18;;;;;;;12.13;9.73;;;22.40;72.10;;;;;;5051453;28;20049;-75
2023/09/09 07:29:43;;;;;;;13.95;10.98;;;22.50;71.60;;;;;;5035360;28;20025;-75
2023/09/09 07:32:09;;;;;;;10.35;9.25;;;22.60;71.30;;;;;;5035409;28;20025;-75
2023/09/09 07:34:36;;;;;;;16.00;11.35;;;22.60;71.10;;;;;;5035135;28;20029;-75
2023/09/09 07:37:01;;;;;;;15.50;10.82;;;22.80;70.60;;;;;;5035364;28;20029;-75
2023/09/09 07:39:27;;;;;;;11.50;9.40;;;22.90;70.60;;;;;;5035190;28;20017;-74
2023/09/09 07:41:53;;;;;;;12.73;9.90;;;23.10;70.30;;;;;;5035108;28;20032;-76
2023/09/09 07:44:19;;;;;;;17.52;11.20;;;23.20;69.60;;;;;;5035229;28;20021;-75
2023/09/09 07:46:44;;;;;;;15.82;10.65;;;23.40;69.10;;;;;;5035189;28;20025;-74
2023/09/09 07:49:10;;;;;;;13.60;10.20;;;23.50;68.60;;;;;;5035129;28;20606;-73
2023/09/09 07:51:35;;;;;;;11.02;9.40;;;23.50;68.80;;;;;;5035017;28;20025;-76
2023/09/09 07:54:01;;;;;;;12.85;8.30;;;23.60;68.60;;;;;;5054811;28;20032;-78
2023/09/09 07:56:27;;;;;;;11.05;8.48;;;23.70;68.20;;;;;;5035085;28;20399;-76
2023/09/09 07:58:52;;;;;;;10.80;9.55;;;23.90;68.70;;;;;;5035271;28;20512;-76
2023/09/09 08:01:18;;;;;;;11.20;10.13;;;24.00;68.00;;;;;;5035049;28;20021;-76
2023/09/09 08:03:44;;;;;;;14.57;10.35;;;24.10;68.00;;;;;;5018605;28;20029;-75
2023/09/09 08:06:10;;;;;;;10.85;9.75;;;24.10;67.20;;;;;;5034760;28;20017;-76
2023/09/09 08:08:37;;;;;;;12.13;9.13;;;24.00;67.90;;;;;;5034514;28;20047;-76
2023/09/09 08:11:04;;;;;;;10.40;9.48;;;24.00;67.80;;;;;;5034566;28;20467;-75
2023/09/09 08:13:31;;;;;;;8.93;8.02;;;24.20;67.60;;;;;;5018448;28;20041;-75
2023/09/09 08:16:00;;;;;;;9.88;8.90;;;24.30;66.90;;;;;;5034423;28;20025;-76
2023/09/09 08:18:26;;;;;;;12.40;9.32;;;24.50;66.60;;;;;;5034198;28;20021;-76
2023/09/09 08:20:52;;;;;;;11.60;9.70;;;24.50;66.30;;;;;;5034149;28;20036;-75
2023/09/09 08:23:18;;;;;;;12.55;9.05;;;24.50;66.30;;;;;;5034206;28;20021;-75
2023/09/09 08:25:44;;;;;;;10.85;9.85;;;24.60;66.10;;;;;;5034413;28;20356;-75
2023/09/09 08:28:10;;;;;;;10.02;9.02;;;24.60;65.20;;;;;;5033904;28;20148;-76
2023/09/09 08:30:36;;;;;;;11.43;8.45;;;24.70;65.10;;;;;;5034260;28;20132;-76
2023/09/09 08:33:02;;;;;;;9.15;8.27;;;24.80;65.40;;;;;;5034624;28;20517;-76
2023/09/09 08:35:30;;;;;;;8.73;7.82;;;24.90;65.10;;;;;;5036257;28;20071;-75
2023/09/09 08:37:56;;;;;;;12.88;9.02;;;25.10;65.10;;;;;;5038285;28;20363;-76
2023/09/09 08:40:21;;;;;;;11.80;9.00;;;25.10;64.10;;;;;;5038264;28;20066;-76
2023/09/09 08:43:27;;;;;;;11.73;9.27;;;25.20;64.50;;;;;;5056137;28;20398;-75
2023/09/09 08:46:02;;;;;;;9.30;8.02;;;25.30;64.70;;;;;;5053300;28;20039;-75
2023/09/09 08:48:36;;;;;;;9.98;7.95;;;25.50;64.30;;;;;;5054318;28;20131;-75
2023/09/09 08:51:04;;;;;;;10.30;8.38;;;25.70;63.00;;;;;;5038483;28;20116;-74
2023/09/09 08:53:31;;;;;;;9.77;8.05;;;25.90;62.70;;;;;;5038210;28;20021;-75
2023/09/09 08:55:58;;;;;;;11.00;8.18;;;26.10;62.00;;;;;;5038098;28;20051;-75
2023/09/09 08:58:24;;;;;;;8.57;7.78;;;26.30;61.00;;;;;;5037651;28;20036;-76
2023/09/09 09:00:50;;;;;;;8.80;7.90;;;26.50;60.70;;;;;;5038223;28;20025;-78
2023/09/09 09:03:17;;;;;;;9.57;8.48;;;26.70;60.40;;;;;;5055504;28;20029;-78
2023/09/09 09:05:44;;;;;;;11.35;8.20;;;26.80;60.30;;;;;;5038201;28;20021;-78
2023/09/09 09:08:10;;;;;;;7.93;7.07;;;26.90;59.40;;;;;;5038388;28;20086;-80
2023/09/09 09:10:40;;;;;;;10.55;8.15;;;27.10;59.60;;;;;;5041456;28;20119;-79
2023/09/09 09:13:06;;;;;;;8.32;7.43;;;27.20;59.30;;;;;;5039225;28;20031;-77
2023/09/09 09:15:33;;;;;;;12.55;7.85;;;27.30;58.00;;;;;;5044502;28;20025;-80
2023/09/09 09:18:02;;;;;;;8.82;7.47;;;27.30;57.90;;;;;;5039154;28;20120;-77
2023/09/09 09:20:30;;;;;;;7.95;6.97;;;27.40;57.20;;;;;;5037620;28;20027;-75
2023/09/09 09:23:00;;;;;;;7.72;6.20;;;27.50;56.70;;;;;;5037191;28;20017;-74
2023/09/09 09:25:28;;;;;;;7.20;6.45;;;27.60;53.40;;;;;;5055433;28;20021;-75
2023/09/09 09:27:57;;;;;;;7.00;6.30;;;27.40;52.40;;;;;;5055030;28;20045;-77
2023/09/09 09:30:25;;;;;;;8.00;6.63;;;27.20;53.40;;;;;;5054953;28;20024;-76
2023/09/09 09:32:54;;;;;;;6.63;5.97;;;27.20;53.60;;;;;;5037448;28;20032;-75
2023/09/09 09:35:24;;;;;;;10.07;6.25;;;27.40;51.80;;;;;;5054874;28;20029;-75
2023/09/09 09:37:59;;;;;;;8.45;6.55;;;27.70;52.20;;;;;;5055003;28;20049;-77
2023/09/09 09:40:28;;;;;;;;;;;27.90;50.40;;;;;;5037944;28;20022;-75
2023/09/09 09:42:54;;;;;;;7.63;6.25;;;28.00;51.80;;;;;;5054804;28;19905;-74
2023/09/09 09:45:28;;;;;;;8.75;6.65;;;28.20;51.40;;;;;;5054572;28;20029;-75
2023/09/09 09:47:54;;;;;;;6.82;5.93;;;28.40;50.00;;;;;;5036851;28;20107;-76
2023/09/09 09:50:28;;;;;;;9.20;6.10;;;28.60;50.00;;;;;;5036905;28;20127;-75
2023/09/09 09:53:07;;;;;;;8.48;6.45;;;28.50;45.40;;;;;;5036850;28;20029;-78
2023/09/09 09:55:35;;;;;;;9.40;6.50;;;28.60;48.80;;;;;;5054564;28;20053;-77
2023/09/09 09:58:03;;;;;;;8.75;6.35;;;28.90;48.40;;;;;;5036889;28;20476;-74
2023/09/09 10:00:29;;;;;;;7.30;6.15;;;28.90;46.80;;;;;;5036602;28;20037;-75
2023/09/09 10:02:57;;;;;;;7.90;6.13;;;29.10;46.10;;;;;;5036563;28;20052;-75
2023/09/09 10:05:27;;;;;;;7.20;5.72;;;29.40;45.20;;;;;;5036627;28;20033;-75
2023/09/09 10:08:12;;;;;;;9.98;5.70;;;29.60;42.50;;;;;;5036811;28;20068;-75
2023/09/09 10:10:45;;;;;;;6.85;4.78;;;29.60;42.00;;;;;;5040934;28;20028;-75
2023/09/09 10:13:26;;;;;;;8.57;4.63;;;29.80;38.30;;;;;;5037237;28;20414;-75
2023/09/09 10:15:54;;;;;;;6.75;4.63;;;29.90;37.30;;;;;;5036287;28;20490;-74
2023/09/09 10:18:22;;;;;;;9.07;5.10;;;30.00;37.40;;;;;;5036587;28;20029;-75
2023/09/09 10:20:50;;;;;;;6.40;4.72;;;30.00;37.80;;;;;;5037419;28;20025;-74
2023/09/09 10:23:17;;;;;;;4.95;4.03;;;29.90;36.80;;;;;;5037431;28;20478;-75
2023/09/09 10:25:47;;;;;;;5.43;4.60;;;29.80;38.70;;;;;;5036434;28;20048;-75
2023/09/09 10:28:13;;;;;;;5.90;5.25;;;29.80;39.20;;;;;;5036333;28;20140;-76
2023/09/09 10:30:39;;;;;;;7.78;5.80;;;29.80;40.20;;;;;;5036081;28;20024;-75
2023/09/09 10:33:08;;;;;;;8.25;5.72;;;30.00;42.70;;;;;;5036248;28;20024;-79
2023/09/09 10:35:35;;;;;;;6.25;5.55;;;30.30;43.10;;;;;;5036365;28;20566;-73
2023/09/09 10:38:04;;;;;;;8.23;6.05;;;30.60;42.60;;;;;;5041732;28;20040;-75
2023/09/09 10:40:30;;;;;;;7.22;5.35;;;30.40;41.60;;;;;;5036391;28;20494;-77
2023/09/09 10:42:56;;;;;;;7.72;5.32;;;30.10;39.80;;;;;;5036551;28;20485;-77
2023/09/09 10:45:23;;;;;;;7.30;5.63;;;29.90;39.90;;;;;;5036356;28;20211;-77
2023/09/09 10:48:14;;;;;;;8.70;5.47;;;29.70;41.30;;;;;;5036456;28;20033;-77
2023/09/09 10:50:50;;;;;;;6.20;5.53;;;29.90;40.70;;;;;;5051315;28;20029;-74
2023/09/09 10:53:28;;;;;;;8.10;5.63;;;30.20;40.60;;;;;;5036042;28;20021;-75
2023/09/09 10:55:54;;;;;;;12.60;6.10;;;30.30;41.30;;;;;;5035504;28;20021;-76
2023/09/09 10:58:21;;;;;;;12.50;5.95;;;30.30;40.50;;;;;;5035348;28;20035;-72
2023/09/09 11:00:48;;;;;;;10.18;5.25;;;30.50;39.80;;;;;;5035744;28;20383;-74
2023/09/09 11:03:27;;;;;;;11.77;5.65;;;30.90;38.60;;;;;;5035877;28;20029;-74
2023/09/09 11:06:05;;;;;;;7.72;5.13;;;31.20;38.40;;;;;;5053760;28;20059;-74
2023/09/09 11:08:47;;;;;;;5.78;4.95;;;31.50;37.70;;;;;;5035933;28;20043;-73
2023/09/09 11:11:42;;;;;;;7.20;4.88;;;31.80;36.80;;;;;;5053605;28;20021;-73
2023/09/09 11:14:10;;;;;;;7.47;4.70;;;32.20;36.30;;;;;;5035924;28;20437;-73
2023/09/09 11:16:40;;;;;;;5.78;4.90;;;32.60;34.80;;;;;;5035704;28;20045;-74
2023/09/09 11:19:06;;;;;;;7.15;5.03;;;32.90;34.20;;;;;;5035320;28;20360;-73
2023/09/09 11:21:34;;;;;;;5.85;4.30;;;33.00;34.60;;;;;;5035479;28;20124;-74
2023/09/09 11:24:01;;;;;;;6.95;5.03;;;33.10;34.70;;;;;;5035485;28;20036;-72
2023/09/09 11:26:28;;;;;;;21.73;6.60;;;33.40;34.10;;;;;;5034904;28;20092;-74
2023/09/09 11:28:54;;;;;;;8.10;4.80;;;33.40;34.00;;;;;;5035261;28;20043;-73
2023/09/09 11:31:19;;;;;;;9.75;5.35;;;33.60;33.70;;;;;;5034892;28;20032;-74
2023/09/09 11:33:45;;;;;;;5.97;4.93;;;33.30;33.30;;;;;;5035108;28;20025;-74
2023/09/09 11:36:17;;;;;;;7.22;4.28;;;32.40;35.10;;;;;;5034875;28;20025;-73
2023/09/09 11:38:44;;;;;;;5.93;4.75;;;32.40;35.30;;;;;;5035116;28;20029;-74
2023/09/09 11:41:20;;;;;;;7.00;4.72;;;32.60;34.60;;;;;;5035052;28;20100;-73
2023/09/09 11:44:05;;;;;;;7.63;5.05;;;32.80;33.70;;;;;;5035104;28;20428;-73
2023/09/09 11:46:42;;;;;;;8.80;4.72;;;33.00;33.40;;;;;;5035002;28;20037;-73
2023/09/09 11:49:08;;;;;;;7.57;5.55;;;33.00;33.90;;;;;;5034960;28;20174;-73
2023/09/09 11:51:35;;;;;;;6.00;4.78;;;32.90;33.00;;;;;;5034986;28;20017;-74
2023/09/09 11:54:01;;;;;;;8.05;4.43;;;33.00;34.00;;;;;;5034809;28;20029;-75
2023/09/09 11:56:29;;;;;;;4.93;4.22;;;33.30;32.90;;;;;;5035124;28;20017;-74
2023/09/09 11:58:55;;;;;;;4.75;4.20;;;33.70;30.80;;;;;;5036686;28;20065;-73
2023/09/09 12:01:21;;;;;;;4.85;4.30;;;34.00;29.80;;;;;;5034407;28;20112;-73
2023/09/09 12:03:50;;;;;;;7.13;4.80;;;34.10;28.70;;;;;;5034726;28;20075;-76
2023/09/09 12:06:21;;;;;;;5.13;4.43;;;34.30;28.10;;;;;;5034925;28;20067;-76
2023/09/09 12:08:48;;;;;;;7.70;5.07;;;34.60;27.70;;;;;;5034876;28;20108;-73
2023/09/09 12:11:16;;;;;;;8.02;5.15;;;34.40;30.20;;;;;;5034435;28;20095;-74
2023/09/09 12:13:43;;;;;;;6.55;4.63;;;34.10;32.60;;;;;;5052305;28;20028;-72
2023/09/09 12:16:09;;;;;;;6.72;5.03;;;33.80;31.50;;;;;;5034639;28;20025;-73
2023/09/09 12:18:35;;;;;;;5.40;4.50;;;34.00;31.80;;;;;;5052004;28;20067;-74
2023/09/09 12:21:09;;;;;;;10.43;4.63;;;33.90;31.00;;;;;;5034553;28;20096;-74
2023/09/09 12:23:37;;;;;;;6.80;5.17;;;34.20;30.90;;;;;;5034569;28;20494;-74
2023/09/09 12:26:20;;;;;;;6.10;4.93;;;34.80;30.20;;;;;;5052311;28;20565;-74
2023/09/09 12:29:04;;;;;;;7.93;4.72;;;35.00;30.00;;;;;;5034728;28;20168;-74
2023/09/09 12:31:31;;;;;;;5.20;4.60;;;35.00;29.40;;;;;;5034516;28;20467;-73
2023/09/09 12:33:57;;;;;;;5.70;4.32;;;35.10;28.90;;;;;;5034075;28;20029;-74
2023/09/09 12:36:23;;;;;;;8.45;4.72;;;35.30;28.90;;;;;;5051817;28;20100;-73
2023/09/09 12:38:50;;;;;;;8.48;4.50;;;35.60;28.10;;;;;;5052142;28;20103;-73